createdAt,value
2019-01-13T00:02:39.109Z,2.50
2019-01-13T00:05:29.279Z,1.77
2019-01-13T00:08:19.392Z,2.83
2019-01-13T00:14:04.935Z,1.97
2019-01-13T00:17:14.119Z,2.27
2019-01-13T00:20:04.215Z,1.90
2019-01-13T00:23:15.008Z,1.80
2019-01-13T00:29:00.952Z,1.63
2019-01-13T00:31:51.151Z,1.67
2019-01-13T00:34:22.077Z,1.50
2019-01-13T00:36:53.026Z,2.17
2019-01-13T00:39:43.175Z,2.00
2019-01-13T00:42:33.366Z,2.03
2019-01-13T00:45:44.224Z,2.13
2019-01-13T00:48:34.451Z,1.83
2019-01-13T00:51:45.260Z,2.20
2019-01-13T00:54:35.483Z,2.10
2019-01-13T00:57:25.611Z,2.23
2019-01-13T00:59:56.555Z,3.73
2019-01-13T01:03:05.907Z,1.87
2019-01-13T01:05:36.848Z,2.47
2019-01-13T01:11:37.669Z,1.70
2019-01-13T01:14:08.572Z,1.73
2019-01-13T01:16:58.556Z,1.80
2019-01-13T01:19:48.780Z,2.00
2019-01-13T01:22:19.837Z,2.03
2019-01-13T01:28:44.905Z,2.20
2019-01-13T01:31:35.051Z,2.27
2019-01-13T01:34:06.048Z,2.00
2019-01-13T01:36:56.238Z,2.40
2019-01-13T01:43:01.123Z,2.40
2019-01-13T01:45:32.071Z,2.47
2019-01-13T01:48:41.199Z,2.40
2019-01-13T01:51:31.363Z,2.57
2019-01-13T01:54:02.280Z,3.30
2019-01-13T01:56:52.284Z,3.03
2019-01-13T01:59:23.166Z,2.90
2019-01-13T02:01:54.083Z,2.97
2019-01-13T02:07:59.323Z,3.30
2019-01-13T02:10:30.242Z,3.23
2019-01-13T02:13:01.245Z,3.53
2019-01-13T02:15:51.437Z,3.50
2019-01-13T02:18:41.548Z,3.30
2019-01-13T02:21:31.667Z,4.77
2019-01-13T02:24:21.746Z,3.80
2019-01-13T02:27:12.030Z,3.60
2019-01-13T02:29:43.040Z,3.27
2019-01-13T02:35:43.817Z,4.03
2019-01-13T02:38:34.025Z,4.37
2019-01-13T02:41:05.135Z,4.47
2019-01-13T02:43:36.092Z,4.33
2019-01-13T02:46:45.327Z,4.40
2019-01-13T02:49:35.533Z,4.30
2019-01-13T02:52:44.628Z,4.83
2019-01-13T02:55:34.846Z,4.77
2019-01-13T02:58:25.020Z,4.37
2019-01-13T03:00:57.225Z,4.43
2019-01-13T03:04:06.877Z,4.30
2019-01-13T03:06:56.973Z,4.13
2019-01-13T03:09:47.149Z,4.00
2019-01-13T03:12:37.197Z,4.10
2019-01-13T03:15:48.001Z,4.10
2019-01-13T03:18:18.913Z,3.87
2019-01-13T03:21:29.749Z,3.73
2019-01-13T03:24:39.033Z,3.53
2019-01-13T03:31:11.375Z,3.53
2019-01-13T03:34:30.500Z,3.20
2019-01-13T03:37:20.630Z,3.10
2019-01-13T03:39:51.642Z,3.27
2019-01-13T03:42:22.625Z,3.10
2019-01-13T03:44:53.514Z,3.50
2019-01-13T03:47:43.687Z,3.60
2019-01-13T03:50:52.910Z,3.27
2019-01-13T03:53:43.110Z,3.70
2019-01-13T03:56:14.130Z,3.90
2019-01-13T04:01:54.301Z,4.37
2019-01-13T04:05:03.484Z,4.27
2019-01-13T04:07:53.620Z,4.33
2019-01-13T04:10:43.849Z,5.17
2019-01-13T04:13:34.002Z,4.27
2019-01-13T04:16:44.831Z,4.93
2019-01-13T04:19:15.762Z,4.60
2019-01-13T04:25:59.055Z,6.50
2019-01-13T04:28:49.165Z,6.70
2019-01-13T04:31:39.157Z,6.57
2019-01-13T04:37:43.956Z,6.53
2019-01-13T04:40:34.259Z,8.23
2019-01-13T04:43:45.040Z,7.07
2019-01-13T04:46:16.125Z,7.87
2019-01-13T04:49:06.276Z,12.10
2019-01-13T04:51:56.401Z,8.43
2019-01-13T04:54:27.350Z,7.60
2019-01-13T04:56:58.397Z,8.00
2019-01-13T04:59:29.358Z,8.63
2019-01-13T05:02:19.609Z,7.10
2019-01-13T05:05:09.737Z,8.80
2019-01-13T05:10:49.832Z,6.30
2019-01-13T05:13:39.918Z,7.93
2019-01-13T05:16:10.821Z,6.63
2019-01-13T05:19:00.938Z,7.80
2019-01-13T05:21:31.888Z,6.90
2019-01-13T05:24:41.124Z,7.93
2019-01-13T05:27:12.013Z,7.40
2019-01-13T05:29:42.976Z,6.60
2019-01-13T05:32:33.270Z,6.77
2019-01-13T05:35:44.086Z,7.07
2019-01-13T05:38:15.059Z,6.90
2019-01-13T05:41:05.348Z,7.10
2019-01-13T05:43:55.536Z,7.77
2019-01-13T05:49:35.643Z,7.40
2019-01-13T05:52:25.846Z,8.83
2019-01-13T05:54:56.748Z,8.43
2019-01-13T05:57:27.718Z,9.07
2019-01-13T06:00:17.928Z,8.00
2019-01-13T06:05:38.936Z,7.57
2019-01-13T06:08:29.079Z,8.97
2019-01-13T06:11:19.759Z,9.20
2019-01-13T06:14:09.764Z,9.17
2019-01-13T06:16:59.918Z,9.33
2019-01-13T06:19:30.799Z,9.83
2019-01-13T06:22:21.037Z,9.97
2019-01-13T06:28:00.978Z,9.53
2019-01-13T06:30:31.846Z,10.87
2019-01-13T06:36:36.571Z,10.17
2019-01-13T06:39:47.421Z,10.93
2019-01-13T06:42:18.383Z,11.00
2019-01-13T06:45:08.542Z,9.97
2019-01-13T06:47:58.766Z,8.87
2019-01-13T06:51:09.465Z,10.50
2019-01-13T06:54:00.134Z,9.70
2019-01-13T06:56:31.254Z,8.33
2019-01-13T07:02:30.548Z,8.50
2019-01-13T07:08:29.880Z,8.50
2019-01-13T07:11:20.079Z,8.73
2019-01-13T07:13:51.128Z,8.77
2019-01-13T07:19:31.256Z,8.50
2019-01-13T07:22:21.490Z,8.27
2019-01-13T07:24:52.555Z,8.57
2019-01-13T07:27:42.806Z,7.80
2019-01-13T07:30:53.641Z,9.20
2019-01-13T07:36:53.041Z,9.40
2019-01-13T07:42:52.507Z,10.17
2019-01-13T07:48:51.705Z,11.60
2019-01-13T07:51:22.681Z,11.53
2019-01-13T07:57:46.843Z,11.07
2019-01-13T08:04:12.086Z,10.80
2019-01-13T08:07:02.188Z,11.93
2019-01-13T08:09:33.197Z,12.43
2019-01-13T08:15:58.621Z,11.27
2019-01-13T08:18:49.300Z,11.50
2019-01-13T08:21:39.633Z,10.10
2019-01-13T08:24:10.594Z,11.40
2019-01-13T08:30:56.689Z,11.00
2019-01-13T08:33:27.671Z,11.30
2019-01-13T08:35:58.797Z,13.07
2019-01-13T08:42:03.385Z,10.97
2019-01-13T08:44:53.413Z,11.43
2019-01-13T08:47:43.411Z,12.00
2019-01-13T08:50:33.837Z,11.60
2019-01-13T08:53:04.802Z,11.33
2019-01-13T08:55:55.057Z,11.37
2019-01-13T08:59:04.338Z,11.63
2019-01-13T09:01:54.595Z,9.87
2019-01-13T09:04:44.681Z,11.47
2019-01-13T09:07:15.819Z,11.30
2019-01-13T09:10:45.694Z,12.93
2019-01-13T09:13:35.935Z,10.30
2019-01-13T09:17:05.809Z,10.23
2019-01-13T09:19:55.994Z,10.60
2019-01-13T09:22:27.009Z,10.70
2019-01-13T09:24:57.975Z,10.63
2019-01-13T09:27:48.212Z,10.87
2019-01-13T09:30:59.045Z,9.90
2019-01-13T09:33:49.230Z,9.43
2019-01-13T09:36:39.448Z,9.90
2019-01-13T09:39:48.708Z,10.57
2019-01-13T09:42:38.982Z,9.57
2019-01-13T09:45:49.784Z,10.73
2019-01-13T09:48:40.167Z,10.07
2019-01-13T09:51:30.341Z,8.50
2019-01-13T09:54:01.401Z,8.60
2019-01-13T09:56:51.547Z,7.47
2019-01-13T09:59:41.672Z,6.73
2019-01-13T10:02:31.829Z,5.30
2019-01-13T10:05:22.005Z,6.27
2019-01-13T10:07:53.007Z,4.27
2019-01-13T10:10:43.913Z,3.80
2019-01-13T10:14:13.420Z,4.73
2019-01-13T10:17:03.665Z,4.17
2019-01-13T10:22:43.749Z,2.40
2019-01-13T10:28:23.821Z,1.70
2019-01-13T10:34:03.894Z,1.83
2019-01-13T10:36:54.110Z,3.33
2019-01-13T10:39:25.010Z,2.17
2019-01-13T10:41:55.994Z,3.80
2019-01-13T10:44:46.126Z,3.53
2019-01-13T10:47:36.202Z,2.43
2019-01-13T10:51:06.228Z,2.47
2019-01-13T10:53:56.349Z,2.50
2019-01-13T10:57:05.654Z,2.90
2019-01-13T11:02:26.584Z,2.10
2019-01-13T11:05:16.714Z,2.10
2019-01-13T11:11:23.455Z,0.80
2019-01-13T11:14:13.710Z,1.93
2019-01-13T11:17:03.994Z,1.17
2019-01-13T11:19:54.125Z,0.80
2019-01-13T11:22:44.315Z,0.90
2019-01-13T11:25:55.098Z,0.80
2019-01-13T11:28:26.106Z,0.70
2019-01-13T11:30:57.090Z,0.93
2019-01-13T11:34:06.619Z,0.73
2019-01-13T11:37:17.472Z,1.67
2019-01-13T11:40:07.744Z,0.63
2019-01-13T11:45:47.841Z,1.20
2019-01-13T11:48:18.857Z,0.50
2019-01-13T11:51:08.903Z,1.13
2019-01-13T11:53:59.089Z,1.10
2019-01-13T11:56:49.346Z,0.57
2019-01-13T12:07:04.973Z,0.70
2019-01-13T12:09:55.649Z,1.37
2019-01-13T12:13:47.881Z,1.80
2019-01-13T12:17:16.610Z,3.33
2019-01-13T12:20:09.021Z,0.60
2019-01-13T12:22:40.095Z,0.70
2019-01-13T12:25:52.745Z,1.80
2019-01-13T12:31:42.408Z,0.73
2019-01-13T12:34:32.645Z,0.80
2019-01-13T12:37:35.134Z,0.70
2019-01-13T12:40:34.093Z,1.53
2019-01-13T12:43:45.158Z,1.13
2019-01-13T13:03:38.697Z,1.13
2019-01-13T13:06:28.987Z,0.70
2019-01-13T13:09:19.429Z,0.87
2019-01-13T13:12:09.883Z,1.23
2019-01-13T13:15:00.205Z,1.13
2019-01-13T13:18:11.143Z,1.00
2019-01-13T13:20:42.445Z,0.80
2019-01-13T13:23:32.652Z,1.30
2019-01-13T13:26:43.525Z,1.10
2019-01-13T13:29:14.569Z,0.57
2019-01-13T13:32:04.837Z,0.90
2019-01-13T13:38:26.310Z,1.03
2019-01-13T13:41:16.723Z,3.43
2019-01-13T13:46:55.688Z,1.03
2019-01-13T13:49:26.704Z,0.93
2019-01-13T13:52:17.024Z,1.80
2019-01-13T13:55:08.317Z,1.30
2019-01-13T13:57:39.574Z,1.50
2019-01-13T14:00:50.448Z,1.37
2019-01-13T14:03:45.721Z,2.87
2019-01-13T14:07:10.836Z,1.70
2019-01-13T14:09:41.715Z,1.23
2019-01-13T14:12:31.948Z,1.50
2019-01-13T14:18:12.380Z,2.30
2019-01-13T14:20:43.401Z,1.40
2019-01-13T14:23:14.425Z,1.27
2019-01-13T14:25:45.493Z,1.47
2019-01-13T14:28:24.624Z,1.80
2019-01-13T14:30:55.657Z,1.37
2019-01-13T14:33:26.695Z,1.23
2019-01-13T14:35:58.209Z,1.13
2019-01-13T14:38:48.320Z,1.73
2019-01-13T14:41:59.298Z,2.80
2019-01-13T14:44:49.582Z,1.20
2019-01-13T14:47:51.882Z,1.33
2019-01-13T14:50:50.996Z,1.53
2019-01-13T14:53:41.162Z,1.43
2019-01-13T14:59:22.947Z,2.97
2019-01-13T15:02:13.058Z,1.60
2019-01-13T15:05:03.312Z,2.00
2019-01-13T15:07:34.365Z,1.73
2019-01-13T15:10:45.221Z,1.23
2019-01-13T15:13:16.226Z,3.97
2019-01-13T15:15:47.189Z,2.63
2019-01-13T15:18:37.335Z,1.93
2019-01-13T15:28:18.410Z,1.20
2019-01-13T15:31:08.645Z,0.83
2019-01-13T15:33:58.936Z,0.73
2019-01-13T15:39:19.826Z,1.03
2019-01-13T15:45:00.264Z,0.70
2019-01-13T15:50:40.832Z,0.60
2019-01-13T15:53:11.904Z,1.70
2019-01-13T15:55:42.943Z,0.97
2019-01-13T15:58:14.240Z,0.90
2019-01-13T16:01:04.656Z,1.17
2019-01-13T16:03:54.878Z,1.23
2019-01-13T16:06:25.966Z,1.50
2019-01-13T16:09:16.168Z,1.03
2019-01-13T16:12:06.411Z,0.63
2019-01-13T16:17:46.722Z,1.60
2019-01-13T16:21:16.661Z,0.73
2019-01-13T16:27:02.600Z,0.50
2019-01-13T16:29:52.683Z,3.07
2019-01-13T16:33:03.492Z,0.73
2019-01-13T16:35:55.114Z,1.43
2019-01-13T16:38:45.485Z,0.40
2019-01-13T16:44:50.607Z,0.53
2019-01-13T16:47:40.926Z,0.90
2019-01-13T16:50:31.133Z,0.50
2019-01-13T16:53:40.468Z,1.30
2019-01-13T16:56:51.297Z,0.53
2019-01-13T16:59:41.398Z,0.40
2019-01-13T17:06:01.445Z,0.53
2019-01-13T17:08:52.186Z,0.50
2019-01-13T17:14:39.263Z,0.50
2019-01-13T17:17:10.425Z,0.63
2019-01-13T17:20:00.792Z,0.50
2019-01-13T17:22:50.915Z,0.90
2019-01-13T17:25:41.422Z,0.70
2019-01-13T17:28:31.570Z,0.73
2019-01-13T17:34:37.004Z,1.13
2019-01-13T17:37:27.731Z,1.13
2019-01-13T17:39:58.659Z,2.33
2019-01-13T17:42:48.953Z,1.47
2019-01-13T17:45:59.753Z,1.00
2019-01-13T17:49:08.994Z,0.80
2019-01-13T17:51:59.235Z,0.87
2019-01-13T17:55:50.417Z,1.07
2019-01-13T17:58:40.736Z,2.10
2019-01-13T18:01:51.857Z,0.63
2019-01-13T18:05:02.806Z,1.20
2019-01-13T18:07:53.114Z,0.90
2019-01-13T18:10:43.313Z,0.70
2019-01-13T18:13:14.319Z,0.50
2019-01-13T18:16:04.562Z,0.87
2019-01-13T18:22:04.031Z,0.50
2019-01-13T18:24:54.208Z,1.40
2019-01-13T18:27:44.596Z,0.67
2019-01-13T18:30:35.182Z,0.73
2019-01-13T18:33:45.957Z,0.60
2019-01-13T18:36:36.175Z,1.27
2019-01-13T18:39:46.975Z,0.80
2019-01-13T18:42:57.833Z,0.90
2019-01-13T18:45:28.845Z,0.57
2019-01-13T18:48:19.042Z,0.80
2019-01-13T18:51:10.453Z,0.70
2019-01-13T18:54:02.378Z,0.80
2019-01-13T18:56:52.484Z,0.60
2019-01-13T18:59:42.591Z,0.83
2019-01-13T19:02:32.673Z,0.60
2019-01-13T19:05:43.559Z,0.53
2019-01-13T19:08:33.981Z,0.70
2019-01-13T19:11:46.441Z,4.27
2019-01-13T19:14:36.767Z,1.00
2019-01-13T19:17:26.944Z,1.33
2019-01-13T19:19:57.898Z,0.63
2019-01-13T19:22:48.215Z,0.70
2019-01-13T19:25:38.239Z,0.80
2019-01-13T19:28:47.747Z,0.67
2019-01-13T19:34:27.884Z,0.80
2019-01-13T19:40:49.516Z,0.40
2019-01-13T19:43:32.463Z,0.60
2019-01-13T19:46:22.742Z,0.40
2019-01-13T19:49:12.866Z,0.40
2019-01-13T19:54:58.646Z,0.57
2019-01-13T19:57:29.795Z,0.77
2019-01-13T20:00:00.963Z,1.00
2019-01-13T20:02:51.362Z,0.57
2019-01-13T20:05:41.706Z,0.90
2019-01-13T20:08:12.994Z,1.00
2019-01-13T20:11:43.279Z,0.60
2019-01-13T20:14:33.355Z,2.00
2019-01-13T20:17:23.667Z,1.17
2019-01-13T20:20:13.956Z,0.53
2019-01-13T20:23:04.134Z,1.90
2019-01-13T20:25:35.209Z,0.83
2019-01-13T20:28:25.389Z,0.90
2019-01-13T20:30:56.598Z,3.73
2019-01-13T20:33:46.703Z,2.10
2019-01-13T20:36:36.986Z,0.80
2019-01-13T20:39:48.067Z,0.80
2019-01-13T20:42:19.092Z,6.30
2019-01-13T20:45:09.219Z,1.57
2019-01-13T20:47:40.231Z,1.27
2019-01-13T20:50:51.047Z,0.60
2019-01-13T20:53:21.970Z,1.00
2019-01-13T20:55:52.935Z,1.60
2019-01-13T20:58:23.935Z,0.50
2019-01-13T21:00:54.879Z,1.00
2019-01-13T21:04:04.252Z,0.70
2019-01-13T21:06:35.383Z,1.93
2019-01-13T21:09:46.227Z,1.50
2019-01-13T21:12:36.429Z,1.10
2019-01-13T21:15:47.275Z,2.10
2019-01-13T21:18:37.498Z,3.27
2019-01-13T21:21:28.409Z,1.20
2019-01-13T21:30:44.916Z,1.93
2019-01-13T21:33:15.978Z,1.23
2019-01-13T21:36:06.145Z,2.63
2019-01-13T21:38:56.384Z,2.90
2019-01-13T21:42:07.222Z,2.47
2019-01-13T21:44:57.463Z,4.13
2019-01-13T21:47:47.571Z,3.77
2019-01-13T21:50:56.902Z,3.33
2019-01-13T21:53:47.033Z,2.43
2019-01-13T21:56:18.151Z,3.33
2019-01-13T21:59:08.228Z,3.60
2019-01-13T22:01:39.237Z,1.83
2019-01-13T22:04:29.571Z,2.17
2019-01-13T22:10:34.502Z,3.10
2019-01-13T22:13:45.342Z,2.70
2019-01-13T22:16:16.440Z,1.30
2019-01-13T22:19:06.663Z,3.03
2019-01-13T22:22:36.535Z,1.20
2019-01-13T22:25:47.359Z,1.43
2019-01-13T22:28:18.461Z,2.70
2019-01-13T22:31:08.564Z,3.13
2019-01-13T22:33:39.421Z,2.17
2019-01-13T22:36:10.536Z,2.00
2019-01-13T22:39:00.919Z,3.40
2019-01-13T22:42:10.259Z,2.23
2019-01-13T22:47:31.210Z,2.80
2019-01-13T22:56:25.464Z,5.00
2019-01-13T22:59:15.570Z,4.20
2019-01-13T23:04:36.364Z,2.10
2019-01-13T23:07:26.518Z,2.53
2019-01-13T23:09:57.559Z,1.53
2019-01-13T23:12:47.604Z,2.43
2019-01-13T23:15:18.598Z,1.93
2019-01-13T23:18:08.684Z,1.63
2019-01-13T23:20:58.975Z,3.53
2019-01-13T23:23:49.206Z,6.87
2019-01-13T23:26:39.338Z,1.43
2019-01-13T23:32:19.526Z,1.97
2019-01-13T23:35:09.598Z,3.37
2019-01-13T23:37:40.754Z,2.60
2019-01-13T23:43:01.836Z,3.00
2019-01-13T23:46:11.424Z,3.37
2019-01-13T23:51:57.325Z,1.93
2019-01-13T23:54:47.600Z,3.07
